• Join FlightAware (Why Join?)
  • Login
  • US Flag 
06:00AM EDT


 

Airport Tracker/Info


-or-


 

Live Flight TrackerFlight Track Log ✈ FDX584 ✈ 21-Apr-2013 ✈ KMEM - KMCI

Flight Track Log - Related Links

Times and Time Zones

All times are in EDT time to prevent confusion due to time zone crossing. See the FDX584 flight status page for this flight to view local times or setup timezone preferences in your user account.

Time Position Orientation Groundspeed Altitude Reporting Facility
EDT Latitude Longitude Course Direction KTS MPH feet Rate Location/Type
05:52PM 35.0500 -89.9833 360° North 159 183 1,200  Level KMEM
05:53PM 35.0833 -89.9833 360° North 165 190 2,700 2,580 Climbing KMEM
05:54PM 35.1500 -90.0000 348° North 277 319 5,900 3,360 Climbing KMEM
05:55PM 35.2333 -90.0167 351° North 286 329 9,700 3,180 Climbing KMEM
05:58PM 35.5514 -90.0381 357° North 398 458 18,500 2,880 Climbing Memphis Center
05:59PM 35.6578 -90.0403 359° North 410 472 21,100 2,220 Climbing Memphis Center
06:00PM 35.7850 -90.0447 358° North 410 472 23,000 900 Climbing Memphis Center
06:01PM 35.9100 -90.0494 358° North 427 491 23,000  Level Memphis Center
06:02PM 36.0289 -90.0619 355° North 433 498 23,000  Level Memphis Center
06:03PM 36.1519 -90.0794 353° North 440 506 23,000  Level Memphis Center
06:04PM 36.2750 -90.0969 353° North 445 512 23,100 1,200 Climbing Memphis Center
06:05PM 36.4003 -90.1147 353° North 445 512 25,400 2,160 Climbing Memphis Center
06:06PM 36.5275 -90.1322 354° North 450 518 27,500 2,400 Climbing Memphis Center
06:07PM 36.6567 -90.1525 353° North 455 524 30,300 2,520 Climbing Memphis Center
06:08PM 36.7817 -90.1731 352° North 460 529 32,600 1,140 Climbing Memphis Center
06:10PM 37.0386 -90.2047 354° North 453 521 34,000 420 Climbing Kansas City Center
06:11PM 37.1886 -90.2269 353° North 452 520 34,000  Level Kansas City Center
06:12PM 37.3136 -90.2453 353° North 451 519 34,000  Level Kansas City Center
06:13PM 37.4361 -90.2628 354° North 452 520 34,000  Level Kansas City Center
06:14PM 37.5594 -90.2806 353° North 448 516 34,000  Level Kansas City Center
06:15PM 37.6839 -90.2994 353° North 449 517 34,000  Level Kansas City Center
06:17PM 37.8086 -90.3175 353° North 451 519 34,000  Level Kansas City Center
06:18PM 37.9528 -90.3414 353° North 448 516 34,000  Level Kansas City Center
06:19PM 38.0869 -90.3608 353° North 449 517 34,000  Level Kansas City Center
06:20PM 38.2047 -90.3803 353° North 449 517 34,000  Level Kansas City Center
06:21PM 38.3278 -90.3986 353° North 446 513 34,000  Level Kansas City Center
06:22PM 38.4614 -90.4197 353° North 446 513 34,000  Level Kansas City Center
06:23PM 38.5842 -90.4392 353° North 445 512 34,000  Level Kansas City Center
06:24PM 38.6986 -90.4931 340° North 446 513 34,000  Level Kansas City Center
06:25PM 38.7706 -90.6219 306° West 450 518 34,000  Level Kansas City Center
06:26PM 38.8461 -90.7775 302° West 444 511 34,000  Level Kansas City Center
06:27PM 38.9114 -90.9086 303° West 438 504 34,000  Level Kansas City Center
06:28PM 38.9739 -91.0400 301° West 435 501 34,000  Level Kansas City Center
06:29PM 39.0367 -91.1711 302° West 432 497 34,000  Level Kansas City Center
06:30PM 39.0986 -91.2992 302° West 426 490 34,000  Level Kansas City Center
06:31PM 39.1594 -91.4283 301° West 424 488 34,000  Level Kansas City Center
06:32PM 39.2342 -91.5836 302° West 425 489 34,000  Level Kansas City Center
06:33PM 39.2967 -91.7156 302° West 425 489 34,000  Level Kansas City Center
06:34PM 39.3569 -91.8458 301° West 425 489 34,000  Level Kansas City Center
06:35PM 39.4183 -91.9767 301° West 427 491 34,000  Level Kansas City Center
06:36PM 39.4792 -92.1083 301° West 428 493 34,000  Level Kansas City Center
06:37PM 39.5403 -92.2406 301° West 429 494 34,000  Level Kansas City Center
06:38PM 39.5978 -92.3725 300° West 426 490 34,000  Level Kansas City Center
06:39PM 39.6400 -92.5464 288° West 424 488 34,000 -600 Level Kansas City Center
06:40PM 39.6517 -92.6950 276° West 418 481 32,800 -1,740 Descending Kansas City Center
06:41PM 39.6506 -92.8333 269° West 394 453 30,500 -2,220 Descending Kansas City Center
06:42PM 39.6464 -92.9683 268° West 381 438 28,200 -2,280 Descending Kansas City Center
06:43PM 39.6450 -93.0978 269° West 369 425 25,900 -2,580 Descending Kansas City Center
06:44PM 39.6425 -93.2492 269° West 354 407 23,000 -2,460 Descending Kansas City Center
06:45PM 39.6411 -93.3708 269° West 343 395 20,800 -2,220 Descending Kansas City Center
06:46PM 39.6381 -93.4867 268° West 334 384 18,400 -2,040 Descending Kansas City Center
06:48PM 39.6364 -93.6000 269° West 318 366 16,600 -2,040 Descending Kansas City Center
06:49PM 39.6336 -93.7106 268° West 312 359 14,300 -2,040 Descending Kansas City Center
06:50PM 39.6303 -93.8394 268° West 307 353 12,400 -1,620 Descending Kansas City Center
06:51PM 39.6164 -93.9414 260° West 300 345 11,000 -1,200 Descending Kansas City Center
06:52PM 39.5969 -94.0464 257° West 267 307 9,900 -1,200 Descending Kansas City Center
06:53PM 39.5792 -94.1344 255° West 263 303 8,500 -1,320 Descending Kansas City Center
06:54PM 39.5603 -94.2353 256° West 260 299 7,200 -840 Descending Kansas City Center
06:55PM 39.5433 -94.3206 256° West 255 293 6,900 -540 Descending Kansas City Center
06:56PM 39.5272 -94.4056 256° West 254 292 6,100 -720 Descending Kansas City Center
06:57PM 39.5075 -94.5039 255° West 253 291 5,500 -960 Descending Kansas City Center
06:58PM 39.4903 -94.5897 255° West 256 295 4,200 -780 Descending Kansas City Center
06:59PM 39.4731 -94.6750 255° West 211 243 4,000 -600 Descending Kansas City Center
07:00PM 39.4225 -94.6903 193° South 195 224 3,000 -1,020 Descending Kansas City Center
07:01PM 39.3672 -94.7075 194° South 181 208 1,900 -840 Descending Kansas City Center
07:02PM 39.3325 -94.7189 194° South 136 157 1,300 -480 Descending Kansas City Center
07:03PM 39.2978 -94.7272 191° South 124 143 1,000 -300 Descending Kansas City Center